.
WxDataArchive / Data Records for 2011-03-07
2011-03-06 March 2011 2011-03-08

Data Records for Monday, 07 March 2011

Time	Temp	Chill	HIndex	Humid	Dewpt	 Wind 	HiWind	WindDir	Rain 	Barom 
-----	----	-----	------	-----	-----	------	------	-------	-----	----- 
00:00	25.4	25.4	25.4	82	20.7	0	0	---	0.00	30.272 
00:05	25.4	25.4	25.4	82	20.7	0	0	---	0.00	30.272 
00:10	25.3	25.3	25.3	83	20.9	0	0	---	0.00	30.272 
00:15	25.1	25.1	25.1	83	20.7	0	0	---	0.00	30.268 
00:20	25.1	25.1	25.1	83	20.7	0	0	---	0.00	30.268 
00:25	25.0	25.0	25.0	83	20.6	0	0	---	0.00	30.268 
00:30	25.0	25.0	25.0	83	20.6	0	0	---	0.00	30.268 
00:35	24.8	24.8	24.8	84	20.7	0	0	---	0.00	30.268 
00:40	24.7	24.7	24.7	84	20.6	0	0	---	0.00	30.268 
00:45	24.7	24.7	24.7	84	20.6	0	0	---	0.00	30.266 
00:50	24.5	24.5	24.5	84	20.4	0	0	---	0.00	30.266 
00:55	24.4	24.4	24.4	84	20.3	0	0	---	0.00	30.266 
01:00	24.4	24.4	24.4	84	20.3	0	0	---	0.00	30.257 
01:05	24.4	24.4	24.4	85	20.6	0	1	112	0.00	30.257 
01:10	24.5	24.5	24.5	85	20.6	0	2	112	0.00	30.257 
01:15	24.5	24.5	24.5	85	20.6	0	1	112	0.00	30.253 
01:20	24.5	24.5	24.5	84	20.4	0	0	---	0.00	30.253 
01:25	24.5	24.5	24.5	84	20.4	0	0	---	0.00	30.253 
01:30	24.4	24.4	24.4	84	20.3	0	0	---	0.00	30.256 
01:35	24.2	24.2	24.2	84	20.1	0	0	---	0.00	30.256 
01:40	24.1	24.1	24.1	84	20.0	0	0	---	0.00	30.256 
01:45	23.9	23.9	23.9	84	19.8	0	0	---	0.00	30.262 
01:50	23.8	23.8	23.8	84	19.7	0	0	---	0.00	30.262 
01:55	23.6	23.6	23.6	84	19.5	0	0	---	0.00	30.262 
02:00	23.5	23.5	23.5	84	19.4	0	0	---	0.00	30.267 
02:05	23.3	23.3	23.3	84	19.2	0	0	---	0.00	30.267 
02:10	23.2	23.2	23.2	84	19.1	0	0	---	0.00	30.267 
02:15	23.2	23.2	23.2	85	19.4	0	0	---	0.00	30.267 
02:20	23.0	23.0	23.0	85	19.2	0	0	---	0.00	30.267 
02:25	22.9	22.9	22.9	85	19.1	0	0	---	0.00	30.267 
02:30	22.9	22.9	22.9	85	19.1	0	0	---	0.00	30.270 
02:35	22.7	22.7	22.7	85	18.9	0	0	---	0.00	30.270 
02:40	22.7	22.7	22.7	85	18.9	0	0	---	0.00	30.270 
02:45	22.7	22.7	22.7	85	18.9	0	0	---	0.00	30.270 
02:50	22.5	22.5	22.5	85	18.7	0	0	---	0.00	30.270 
02:55	22.4	22.4	22.4	85	18.6	0	0	---	0.00	30.270 
03:00	22.2	22.2	22.2	85	18.4	0	0	---	0.00	30.268 
03:05	22.1	22.1	22.1	85	18.3	0	0	---	0.00	30.268 
03:10	21.9	21.9	21.9	85	18.1	0	0	---	0.00	30.268 
03:15	21.8	21.8	21.8	85	18.0	0	0	---	0.00	30.261 
03:20	21.6	21.6	21.6	86	18.1	0	0	---	0.00	30.261 
03:25	21.4	21.4	21.4	86	17.9	0	0	---	0.00	30.261 
03:30	21.4	21.4	21.4	86	17.9	0	0	---	0.00	30.263 
03:35	21.3	21.3	21.3	86	17.8	0	0	---	0.00	30.263 
03:40	21.3	21.3	21.3	86	17.8	0	0	---	0.00	30.263 
03:45	21.1	21.1	21.1	86	17.6	0	0	---	0.00	30.262 
03:50	21.1	21.1	21.1	87	17.8	0	0	---	0.00	30.262 
03:55	21.0	21.0	21.0	87	17.8	0	0	---	0.00	30.262 
04:00	21.0	21.0	21.0	87	17.8	0	0	---	0.00	30.261 
04:05	20.8	20.8	20.8	87	17.6	0	0	---	0.00	30.261 
04:10	20.8	20.8	20.8	87	17.6	0	0	---	0.00	30.261 
04:15	20.6	20.6	20.6	87	17.4	0	0	---	0.00	30.265 
04:20	20.6	20.6	20.6	87	17.4	0	0	---	0.00	30.265 
04:25	20.5	20.5	20.5	87	17.3	0	0	---	0.00	30.265 
04:30	20.3	20.3	20.3	88	17.3	0	0	---	0.00	30.269 
04:35	20.3	20.3	20.3	88	17.3	0	0	---	0.00	30.269 
04:40	20.2	20.2	20.2	88	17.2	0	0	---	0.00	30.269 
04:45	20.0	20.0	20.0	88	17.0	0	0	---	0.00	30.266 
04:50	19.9	19.9	19.9	88	16.9	0	0	---	0.00	30.266 
04:55	19.7	19.7	19.7	88	16.7	0	0	---	0.00	30.266 
05:00	19.7	19.7	19.7	88	16.7	0	0	---	0.00	30.264 
05:05	19.7	19.7	19.7	88	16.7	0	0	---	0.00	30.264 
05:10	19.5	19.5	19.5	88	16.5	0	0	---	0.00	30.264 
05:15	19.7	19.7	19.7	88	16.7	0	0	---	0.00	30.269 
05:20	19.7	19.7	19.7	88	16.7	0	0	---	0.00	30.269 
05:25	19.9	19.9	19.9	89	17.2	0	0	---	0.00	30.269 
05:30	20.0	20.0	20.0	89	17.3	0	0	---	0.00	30.271 
05:35	20.2	20.2	20.2	89	17.5	0	0	---	0.00	30.271 
05:40	20.3	20.3	20.3	89	17.6	0	0	---	0.00	30.271 
05:45	20.3	20.3	20.3	89	17.6	0	0	---	0.00	30.275 
05:50	20.3	20.3	20.3	89	17.6	0	0	---	0.00	30.275 
05:55	20.3	20.3	20.3	89	17.6	0	0	---	0.00	30.275 
06:00	20.3	20.3	20.3	89	17.6	0	0	---	0.00	30.276 
06:05	20.3	20.3	20.3	89	17.6	0	0	---	0.00	30.276 
06:10	20.3	20.3	20.3	89	17.6	0	0	---	0.00	30.276 
06:15	20.3	20.3	20.3	89	17.6	0	0	---	0.00	30.282 
06:20	20.2	20.2	20.2	89	17.5	0	1	112	0.00	30.282 
06:25	20.2	20.2	20.2	89	17.5	0	1	112	0.00	30.282 
06:30	20.3	20.3	20.3	89	17.6	0	1	112	0.00	30.283 
06:35	20.3	20.3	20.3	89	17.6	0	0	---	0.00	30.283 
06:40	20.3	20.3	20.3	89	17.6	0	0	---	0.00	30.283 
06:45	20.2	20.2	20.2	89	17.5	0	0	---	0.00	30.288 
06:50	20.2	20.2	20.2	89	17.5	0	0	---	0.00	30.288 
06:55	20.2	20.2	20.2	89	17.5	0	0	---	0.00	30.288 
07:00	20.0	20.0	20.0	89	17.3	0	1	112	0.00	30.296 
07:05	20.0	20.0	20.0	89	17.3	0	0	---	0.00	30.296 
07:10	19.9	19.9	19.9	89	17.2	0	0	---	0.00	30.296 
07:15	19.9	19.9	19.9	89	17.2	0	0	---	0.00	30.300 
07:20	19.7	19.7	19.7	88	16.7	0	0	---	0.00	30.300 
07:25	19.7	19.7	19.7	88	16.7	0	0	---	0.00	30.300 
07:30	19.9	19.9	19.9	89	17.2	0	0	---	0.00	30.292 
07:35	20.2	20.2	20.2	89	17.5	0	1	112	0.00	30.292 
07:40	20.8	20.8	20.8	89	18.1	0	1	112	0.00	30.292 
07:45	21.1	21.1	21.1	89	18.4	0	0	---	0.00	30.295 
07:50	21.6	21.6	21.6	89	18.9	0	2	112	0.00	30.295 
07:55	21.9	21.9	21.9	89	19.2	0	1	112	0.00	30.295 
08:00	22.2	22.2	22.2	89	19.5	0	1	112	0.00	30.301 
08:05	22.5	22.5	22.5	88	19.5	0	2	112	0.00	30.301 
08:10	22.9	22.9	22.9	88	19.9	1	3	112	0.00	30.301 
08:15	23.0	23.0	23.0	87	19.7	1	3	112	0.00	30.302 
08:20	23.5	23.5	23.5	87	20.2	1	2	112	0.00	30.302 
08:25	23.5	23.5	23.5	85	19.7	1	4	112	0.00	30.302 
08:30	23.8	23.8	23.8	86	20.2	1	2	112	0.00	30.301 
08:35	23.9	23.9	23.9	85	20.1	1	3	112	0.00	30.301 
08:40	24.2	24.2	24.2	84	20.1	1	3	90	0.00	30.301 
08:45	24.4	24.4	24.4	84	20.3	1	5	90	0.00	30.305 
08:50	24.5	24.5	24.5	84	20.4	1	3	90	0.00	30.305 
08:55	24.8	24.8	24.8	84	20.7	1	4	90	0.00	30.305 
09:00	25.1	25.1	25.1	83	20.7	2	4	90	0.00	30.307 
09:05	25.3	25.3	25.3	83	20.9	1	3	90	0.00	30.307 
09:10	25.6	25.6	25.6	82	20.9	1	4	90	0.00	30.307 
09:15	25.8	25.8	25.8	82	21.1	1	4	90	0.00	30.315 
09:20	26.1	26.1	26.1	81	21.1	1	5	90	0.00	30.315 
09:25	26.4	26.4	26.4	81	21.4	0	2	90	0.00	30.315 
09:30	26.7	26.7	26.7	81	21.7	1	3	90	0.00	30.317 
09:35	27.3	27.3	27.3	81	22.3	1	3	90	0.00	30.317 
09:40	27.5	27.5	27.5	79	21.9	1	5	90	0.00	30.317 
09:45	27.0	27.0	27.0	80	21.7	1	3	90	0.00	30.329 
09:50	27.2	27.2	27.2	81	22.2	1	3	90	0.00	30.329 
09:55	27.3	27.3	27.3	79	21.7	2	3	90	0.00	30.329 
10:00	27.2	27.2	27.2	79	21.6	1	3	90	0.00	30.323 
10:05	26.9	26.9	26.9	80	21.6	1	3	90	0.00	30.323 
10:10	27.2	27.2	27.2	81	22.2	1	3	90	0.00	30.323 
10:15	27.2	27.2	27.2	81	22.2	1	4	90	0.00	30.330 
10:20	27.3	27.3	27.3	81	22.3	0	2	90	0.00	30.330 
10:25	27.6	27.6	27.6	81	22.5	1	2	90	0.00	30.330 
10:30	27.6	27.6	27.6	80	22.3	1	4	90	0.00	30.330 
10:35	27.8	27.8	27.8	81	22.7	1	3	90	0.00	30.330 
10:40	27.8	27.8	27.8	80	22.4	2	4	90	0.00	30.330 
10:45	27.6	27.6	27.6	80	22.3	1	2	90	0.00	30.328 
10:50	27.5	27.5	27.5	80	22.2	0	2	90	0.00	30.328 
10:55	27.8	27.8	27.8	80	22.4	1	3	90	0.00	30.328 
11:00	28.1	28.1	28.1	81	23.0	3	6	90	0.00	30.331 
11:05	27.9	27.9	27.9	80	22.5	2	5	112	0.00	30.331 
11:10	27.9	27.9	27.9	81	22.8	1	4	112	0.00	30.331 
11:15	28.4	28.4	28.4	81	23.3	1	3	68	0.00	30.335 
11:20	28.5	28.5	28.5	79	22.8	1	2	68	0.00	30.335 
11:25	28.5	28.5	28.5	79	22.8	1	3	112	0.00	30.335 
11:30	28.7	28.7	28.7	79	23.0	1	4	112	0.00	30.333 
11:35	28.5	28.5	28.5	79	22.8	1	4	112	0.00	30.333 
11:40	28.7	28.7	28.7	80	23.3	1	4	112	0.00	30.333 
11:45	28.8	28.8	28.8	80	23.4	1	3	90	0.00	30.334 
11:50	29.1	29.1	29.1	81	24.0	0	2	90	0.00	30.334 
11:55	29.1	29.1	29.1	79	23.4	3	6	90	0.00	30.334 
12:00	29.1	29.1	29.1	79	23.4	1	5	180	0.00	30.333 
12:05	29.3	29.3	29.3	79	23.6	1	4	68	0.00	30.333 
12:10	29.4	29.4	29.4	80	24.0	1	3	90	0.00	30.333 
12:15	29.8	29.8	29.8	79	24.1	2	5	90	0.00	30.332 
12:20	29.7	29.7	29.7	77	23.4	2	6	90	0.00	30.332 
12:25	29.5	29.5	29.5	78	23.5	2	6	90	0.00	30.332 
12:30	29.4	29.4	29.4	79	23.7	2	5	90	0.00	30.331 
12:35	29.7	29.7	29.7	78	23.7	1	5	112	0.00	30.331 
12:40	30.4	30.4	30.4	78	24.4	2	6	112	0.00	30.331 
12:45	30.3	30.3	30.3	77	24.0	2	4	112	0.00	30.319 
12:50	30.4	30.4	30.4	78	24.4	1	6	112	0.00	30.319 
12:55	30.6	30.6	30.6	78	24.6	3	6	90	0.00	30.319 
13:00	30.9	30.9	30.9	78	24.9	1	4	112	0.00	30.317 
13:05	31.3	31.3	31.3	79	25.6	1	4	90	0.00	30.317 
13:10	31.2	31.2	31.2	76	24.5	2	5	90	0.00	30.317 
13:15	30.6	30.6	30.6	78	24.6	2	5	112	0.00	30.314 
13:20	30.3	30.3	30.3	78	24.3	3	7	90	0.00	30.314 
13:25	30.0	30.0	30.0	79	24.3	3	6	90	0.00	30.314 
13:30	30.3	30.3	30.3	80	24.9	2	6	112	0.00	30.307 
13:35	30.7	30.7	30.7	79	25.0	2	4	112	0.00	30.307 
13:40	30.7	30.7	30.7	79	25.0	3	5	90	0.00	30.307 
13:45	30.4	30.4	30.4	79	24.7	3	10	90	0.00	30.303 
13:50	30.6	30.6	30.6	80	25.2	2	5	112	0.00	30.303 
13:55	31.0	31.0	31.0	78	25.0	2	4	112	0.00	30.303 
14:00	31.3	31.3	31.3	77	24.9	2	6	112	0.00	30.301 
14:05	31.2	31.2	31.2	77	24.8	2	6	90	0.00	30.301 
14:10	31.2	31.2	31.2	76	24.5	3	5	90	0.00	30.301 
14:15	31.0	31.0	31.0	75	24.0	3	6	90	0.00	30.297 
14:20	31.6	31.6	31.6	76	24.9	1	4	90	0.00	30.297 
14:25	32.1	32.1	32.1	76	25.4	1	3	90	0.00	30.297 
14:30	32.4	32.4	32.4	75	25.4	1	4	90	0.00	30.296 
14:35	32.2	32.2	32.2	73	24.5	2	6	112	0.00	30.296 
14:40	32.2	32.2	32.2	73	24.5	2	6	90	0.00	30.296 
14:45	32.4	32.4	32.4	74	25.1	2	4	90	0.00	30.291 
14:50	32.7	32.7	32.7	74	25.3	1	3	112	0.00	30.291 
14:55	32.9	32.9	32.9	73	25.2	3	7	90	0.00	30.291 
15:00	33.1	33.1	33.1	72	25.1	3	6	112	0.00	30.285 
15:05	33.4	33.4	33.4	74	26.0	3	7	90	0.00	30.285 
15:10	33.8	33.8	33.8	73	26.1	2	6	90	0.00	30.285 
15:15	34.0	34.0	34.0	72	25.9	1	4	135	0.00	30.284 
15:20	34.3	34.3	34.3	71	25.9	2	5	112	0.00	30.284 
15:25	34.4	34.4	34.4	71	26.0	2	7	90	0.00	30.284 
15:30	34.6	34.6	34.6	71	26.2	3	6	90	0.00	30.282 
15:35	34.6	34.6	34.6	71	26.2	2	5	90	0.00	30.282 
15:40	34.9	34.9	34.9	72	26.8	1	4	112	0.00	30.282 
15:45	35.2	35.2	35.2	70	26.4	3	5	112	0.00	30.285 
15:50	35.3	35.3	35.3	69	26.2	2	7	112	0.00	30.285 
15:55	35.5	35.5	35.5	68	26.0	1	3	112	0.00	30.285 
16:00	35.6	35.6	35.6	69	26.4	2	6	90	0.00	30.285 
16:05	35.8	35.8	35.8	68	26.3	1	5	112	0.00	30.285 
16:10	35.9	35.9	35.9	67	26.0	2	4	112	0.00	30.285 
16:15	35.9	35.9	35.9	67	26.0	2	5	90	0.00	30.284 
16:20	35.8	35.8	35.8	65	25.2	2	6	90	0.00	30.284 
16:25	35.8	35.8	35.8	63	24.5	3	7	112	0.00	30.284 
16:30	35.9	35.9	35.9	63	24.5	2	5	112	0.00	30.284 
16:35	35.9	35.9	35.9	62	24.2	3	7	112	0.00	30.284 
16:40	35.9	35.9	35.9	63	24.5	3	9	112	0.00	30.284 
16:45	35.9	35.9	35.9	64	24.9	1	5	112	0.00	30.288 
16:50	35.8	35.8	35.8	63	24.5	3	7	112	0.00	30.288 
16:55	35.9	35.9	35.9	63	24.5	1	4	90	0.00	30.288 
17:00	35.8	35.8	35.8	63	24.5	2	5	90	0.00	30.286 
17:05	35.8	35.8	35.8	64	24.8	3	6	112	0.00	30.286 
17:10	35.6	32.2	35.6	63	24.3	4	7	112	0.00	30.286 
17:15	35.6	35.6	35.6	64	24.6	3	6	112	0.00	30.284 
17:20	35.6	35.6	35.6	65	25.0	3	6	90	0.00	30.284 
17:25	35.5	35.5	35.5	65	24.9	3	7	90	0.00	30.284 
17:30	35.5	35.5	35.5	65	24.9	2	5	112	0.00	30.283 
17:35	35.5	35.5	35.5	66	25.3	2	5	90	0.00	30.283 
17:40	35.3	35.3	35.3	66	25.1	3	5	90	0.00	30.283 
17:45	35.3	35.3	35.3	67	25.5	2	5	112	0.00	30.287 
17:50	35.3	35.3	35.3	67	25.5	1	3	112	0.00	30.287 
17:55	35.3	35.3	35.3	67	25.5	1	4	112	0.00	30.287 
18:00	35.3	35.3	35.3	68	25.8	1	3	112	0.00	30.293 
18:05	35.2	35.2	35.2	67	25.4	2	5	112	0.00	30.293 
18:10	35.2	35.2	35.2	68	25.7	2	5	90	0.00	30.293 
18:15	35.0	35.0	35.0	69	25.9	2	4	112	0.00	30.295 
18:20	35.0	35.0	35.0	69	25.9	2	4	90	0.00	30.295 
18:25	34.9	34.9	34.9	69	25.8	1	3	90	0.00	30.295 
18:30	34.9	34.9	34.9	69	25.8	2	4	90	0.00	30.298 
18:35	34.7	34.7	34.7	69	25.6	2	5	68	0.00	30.298 
18:40	34.6	34.6	34.6	70	25.8	2	4	90	0.00	30.298 
18:45	34.4	34.4	34.4	70	25.6	2	7	90	0.00	30.297 
18:50	34.3	34.3	34.3	71	25.9	2	4	90	0.00	30.297 
18:55	34.3	34.3	34.3	72	26.2	1	3	90	0.00	30.297 
19:00	34.1	34.1	34.1	72	26.0	2	4	112	0.00	30.295 
19:05	34.1	34.1	34.1	73	26.4	1	4	112	0.00	30.295 
19:10	34.0	34.0	34.0	73	26.3	1	2	112	0.00	30.295 
19:15	33.8	33.8	33.8	73	26.1	2	5	112	0.00	30.296 
19:20	33.8	33.8	33.8	74	26.4	2	5	90	0.00	30.296 
19:25	33.7	33.7	33.7	74	26.3	3	6	90	0.00	30.296 
19:30	33.7	33.7	33.7	74	26.3	3	5	90	0.00	30.286 
19:35	33.5	33.5	33.5	74	26.1	2	5	112	0.00	30.286 
19:40	33.5	33.5	33.5	74	26.1	3	12	90	0.00	30.286 
19:45	33.4	33.4	33.4	73	25.7	3	7	112	0.00	30.285 
19:50	33.4	29.7	33.4	73	25.7	4	7	112	0.00	30.285 
19:55	33.2	29.5	33.2	73	25.5	4	9	90	0.00	30.285 
20:00	33.2	29.5	33.2	73	25.5	4	9	90	0.00	30.278 
20:05	33.1	33.1	33.1	74	25.7	3	6	112	0.00	30.278 
20:10	32.9	32.9	32.9	74	25.5	3	6	112	0.00	30.278 
20:15	32.9	32.9	32.9	75	25.9	3	9	90	0.00	30.280 
20:20	32.8	32.8	32.8	75	25.8	2	5	112	0.00	30.280 
20:25	32.8	32.8	32.8	76	26.1	3	6	90	0.00	30.280 
20:30	32.8	32.8	32.8	76	26.1	2	5	90	0.00	30.281 
20:35	32.8	32.8	32.8	77	26.4	3	6	90	0.00	30.281 
20:40	32.7	32.7	32.7	77	26.3	3	9	112	0.00	30.281 
20:45	32.7	32.7	32.7	77	26.3	2	6	112	0.00	30.281 
20:50	32.7	32.7	32.7	77	26.3	3	6	90	0.00	30.281 
20:55	32.7	28.9	32.7	78	26.6	4	7	112	0.00	30.281 
21:00	32.5	27.7	32.5	78	26.4	5	11	90	0.00	30.270 
21:05	32.4	28.5	32.4	79	26.6	4	10	112	0.00	30.270 
21:10	32.4	27.5	32.4	79	26.6	5	10	90	0.00	30.270 
21:15	32.2	27.3	32.2	80	26.7	5	12	90	0.00	30.263 
21:20	32.2	28.3	32.2	80	26.7	4	7	90	0.00	30.263 
21:25	32.1	28.2	32.1	80	26.6	4	11	90	0.00	30.263 
21:30	31.9	28.0	31.9	80	26.4	4	7	90	0.00	30.271 
21:35	31.9	31.9	31.9	81	26.7	3	7	90	0.00	30.271 
21:40	31.9	31.9	31.9	81	26.7	2	7	90	0.00	30.271 
21:45	31.9	31.9	31.9	81	26.7	2	3	68	0.00	30.287 
21:50	31.8	31.8	31.8	81	26.6	1	3	68	0.00	30.287 
21:55	31.8	31.8	31.8	82	26.9	2	5	90	0.00	30.287 
22:00	31.6	31.6	31.6	82	26.7	3	6	90	0.00	30.293 
22:05	31.6	31.6	31.6	82	26.7	2	5	90	0.00	30.293 
22:10	31.6	31.6	31.6	82	26.7	1	3	112	0.00	30.293 
22:15	31.5	31.5	31.5	82	26.7	2	5	90	0.00	30.296 
22:20	31.3	31.3	31.3	83	26.7	1	4	112	0.00	30.296 
22:25	31.2	31.2	31.2	83	26.6	1	4	68	0.00	30.296 
22:30	31.2	31.2	31.2	83	26.6	1	4	90	0.00	30.303 
22:35	31.0	31.0	31.0	84	26.7	1	3	90	0.00	30.303 
22:40	30.9	30.9	30.9	84	26.6	1	3	90	0.00	30.303 
22:45	30.9	30.9	30.9	84	26.6	2	6	90	0.00	30.302 
22:50	30.9	30.9	30.9	84	26.6	2	5	90	0.00	30.302 
22:55	30.9	30.9	30.9	84	26.6	2	4	90	0.00	30.302 
23:00	30.9	30.9	30.9	85	26.9	1	3	90	0.00	30.302 
23:05	30.9	30.9	30.9	85	26.9	2	4	90	0.00	30.302 
23:10	30.9	30.9	30.9	85	26.9	1	3	90	0.00	30.302 
23:15	30.7	30.7	30.7	85	26.7	1	3	90	0.00	30.298 
23:20	30.7	30.7	30.7	85	26.7	1	3	90	0.00	30.298 
23:25	30.6	30.6	30.6	85	26.6	2	5	90	0.00	30.298 
23:30	30.6	30.6	30.6	85	26.6	2	6	90	0.00	30.293 
23:35	30.6	30.6	30.6	86	26.9	2	5	90	0.00	30.293 
23:40	30.4	30.4	30.4	86	26.7	2	6	90	0.00	30.293 
23:45	30.4	30.4	30.4	86	26.7	2	7	90	0.00	30.292 
23:50	30.4	30.4	30.4	86	26.7	2	6	90	0.00	30.292 
23:55	30.4	30.4	30.4	86	26.7	3	7	90	0.00	30.292 

CoCoRaHS
IN-AL-39
A2 Web Hosting
Creative Commons License
GoDaddy
search engine by freefind advanced

loaded 2018-11-15 16:11:20 • last modified 2010-11-18 10:43:29
Privacy PolicyDisclaimer
• wx.awcolley.com is powered by PmWiki v.2002016 •
• all content (unless otherwise noted) © 2018 A W Colley